sensor_id;sensor_type;location;lat;lon;timestamp;temperature;humidity
46508;DHT22;32223;53.654;10.014;2023-04-21T00:01:28;6.30;99.90
46508;DHT22;32223;53.654;10.014;2023-04-21T00:03:55;6.30;99.90
46508;DHT22;32223;53.654;10.014;2023-04-21T00:06:20;6.30;99.90
46508;DHT22;32223;53.654;10.014;2023-04-21T00:08:48;6.30;99.90
46508;DHT22;32223;53.654;10.014;2023-04-21T00:11:13;6.30;99.90
46508;DHT22;32223;53.654;10.014;2023-04-21T00:13:39;6.20;99.90
46508;DHT22;32223;53.654;10.014;2023-04-21T00:16:05;6.20;99.90
46508;DHT22;32223;53.654;10.014;2023-04-21T00:18:31;6.30;99.90
46508;DHT22;32223;53.654;10.014;2023-04-21T00:20:56;6.20;99.90
46508;DHT22;32223;53.654;10.014;2023-04-21T00:23:22;6.20;99.90
46508;DHT22;32223;53.654;10.014;2023-04-21T00:25:48;6.20;99.90
46508;DHT22;32223;53.654;10.014;2023-04-21T00:28:13;6.20;99.90
46508;DHT22;32223;53.654;10.014;2023-04-21T00:30:39;6.20;99.90
46508;DHT22;32223;53.654;10.014;2023-04-21T00:33:05;6.20;99.90
46508;DHT22;32223;53.654;10.014;2023-04-21T00:35:30;6.20;99.90
46508;DHT22;32223;53.654;10.014;2023-04-21T00:37:56;6.20;99.90
46508;DHT22;32223;53.654;10.014;2023-04-21T00:40:21;6.20;99.90
46508;DHT22;32223;53.654;10.014;2023-04-21T00:42:47;6.20;99.90
46508;DHT22;32223;53.654;10.014;2023-04-21T00:45:13;6.20;99.90
46508;DHT22;32223;53.654;10.014;2023-04-21T00:47:40;6.20;99.90
46508;DHT22;32223;53.654;10.014;2023-04-21T00:50:06;6.20;99.90
46508;DHT22;32223;53.654;10.014;2023-04-21T00:52:33;6.10;99.90
46508;DHT22;32223;53.654;10.014;2023-04-21T00:54:59;6.20;99.90
46508;DHT22;32223;53.654;10.014;2023-04-21T00:57:25;6.10;99.90
46508;DHT22;32223;53.654;10.014;2023-04-21T00:59:51;6.10;99.90
46508;DHT22;32223;53.654;10.014;2023-04-21T01:02:17;6.10;99.90
46508;DHT22;32223;53.654;10.014;2023-04-21T01:04:43;6.10;99.90
46508;DHT22;32223;53.654;10.014;2023-04-21T01:07:10;6.10;99.90
46508;DHT22;32223;53.654;10.014;2023-04-21T01:09:36;6.10;99.90
46508;DHT22;32223;53.654;10.014;2023-04-21T01:12:03;6.10;99.90
46508;DHT22;32223;53.654;10.014;2023-04-21T01:14:29;6.10;99.90
46508;DHT22;32223;53.654;10.014;2023-04-21T01:16:55;6.10;99.90
46508;DHT22;32223;53.654;10.014;2023-04-21T01:19:22;6.10;99.90
46508;DHT22;32223;53.654;10.014;2023-04-21T01:21:47;6.10;99.90
46508;DHT22;32223;53.654;10.014;2023-04-21T01:24:13;6.10;99.90
46508;DHT22;32223;53.654;10.014;2023-04-21T01:26:39;6.10;99.90
46508;DHT22;32223;53.654;10.014;2023-04-21T01:29:04;6.10;99.90
46508;DHT22;32223;53.654;10.014;2023-04-21T01:31:30;6.10;99.90
46508;DHT22;32223;53.654;10.014;2023-04-21T01:33:56;6.10;99.90
46508;DHT22;32223;53.654;10.014;2023-04-21T01:36:21;6.10;99.90
46508;DHT22;32223;53.654;10.014;2023-04-21T01:38:47;6.10;99.90
46508;DHT22;32223;53.654;10.014;2023-04-21T01:41:12;6.10;99.90
46508;DHT22;32223;53.654;10.014;2023-04-21T01:43:38;6.10;99.90
46508;DHT22;32223;53.654;10.014;2023-04-21T01:46:04;6.10;99.90
46508;DHT22;32223;53.654;10.014;2023-04-21T01:48:30;6.10;99.90
46508;DHT22;32223;53.654;10.014;2023-04-21T01:50:56;6.10;99.90
46508;DHT22;32223;53.654;10.014;2023-04-21T01:53:21;6.10;99.90
46508;DHT22;32223;53.654;10.014;2023-04-21T01:55:47;6.10;99.90
46508;DHT22;32223;53.654;10.014;2023-04-21T01:58:13;6.00;99.90
46508;DHT22;32223;53.654;10.014;2023-04-21T02:00:39;6.00;99.90
46508;DHT22;32223;53.654;10.014;2023-04-21T02:03:04;6.00;99.90
46508;DHT22;32223;53.654;10.014;2023-04-21T02:05:30;6.00;99.90
46508;DHT22;32223;53.654;10.014;2023-04-21T02:07:56;6.00;99.90
46508;DHT22;32223;53.654;10.014;2023-04-21T02:10:22;6.00;99.90
46508;DHT22;32223;53.654;10.014;2023-04-21T02:12:47;6.00;99.90
46508;DHT22;32223;53.654;10.014;2023-04-21T02:15:13;6.00;99.90
46508;DHT22;32223;53.654;10.014;2023-04-21T02:17:39;6.00;99.90
46508;DHT22;32223;53.654;10.014;2023-04-21T02:20:05;6.00;99.90
46508;DHT22;32223;53.654;10.014;2023-04-21T02:22:31;6.00;99.90
46508;DHT22;32223;53.654;10.014;2023-04-21T02:24:57;5.90;99.90
46508;DHT22;32223;53.654;10.014;2023-04-21T02:27:22;6.00;99.90
46508;DHT22;32223;53.654;10.014;2023-04-21T02:29:48;6.00;99.90
46508;DHT22;32223;53.654;10.014;2023-04-21T02:32:13;6.00;99.90
46508;DHT22;32223;53.654;10.014;2023-04-21T02:34:39;6.00;99.90
46508;DHT22;32223;53.654;10.014;2023-04-21T02:37:06;6.00;99.90
46508;DHT22;32223;53.654;10.014;2023-04-21T02:39:32;6.00;99.90
46508;DHT22;32223;53.654;10.014;2023-04-21T02:41:57;6.00;99.90
46508;DHT22;32223;53.654;10.014;2023-04-21T02:44:23;6.00;99.90
46508;DHT22;32223;53.654;10.014;2023-04-21T02:46:49;6.00;99.90
46508;DHT22;32223;53.654;10.014;2023-04-21T02:49:14;6.00;99.90
46508;DHT22;32223;53.654;10.014;2023-04-21T02:51:40;6.10;99.90
46508;DHT22;32223;53.654;10.014;2023-04-21T02:54:05;6.10;99.90
46508;DHT22;32223;53.654;10.014;2023-04-21T02:56:31;6.10;99.90
46508;DHT22;32223;53.654;10.014;2023-04-21T02:58:59;6.10;99.90
46508;DHT22;32223;53.654;10.014;2023-04-21T03:01:24;6.10;99.90
46508;DHT22;32223;53.654;10.014;2023-04-21T03:03:50;6.10;99.90
46508;DHT22;32223;53.654;10.014;2023-04-21T03:06:16;6.10;99.90
46508;DHT22;32223;53.654;10.014;2023-04-21T03:08:42;6.10;99.90
46508;DHT22;32223;53.654;10.014;2023-04-21T03:11:07;6.10;99.90
46508;DHT22;32223;53.654;10.014;2023-04-21T03:13:33;6.10;99.90
46508;DHT22;32223;53.654;10.014;2023-04-21T03:15:58;6.10;99.90
46508;DHT22;32223;53.654;10.014;2023-04-21T03:18:24;6.10;99.90
46508;DHT22;32223;53.654;10.014;2023-04-21T03:20:50;6.20;99.90
46508;DHT22;32223;53.654;10.014;2023-04-21T03:23:15;6.10;99.90
46508;DHT22;32223;53.654;10.014;2023-04-21T03:25:41;6.10;99.90
46508;DHT22;32223;53.654;10.014;2023-04-21T03:28:07;6.20;99.90
46508;DHT22;32223;53.654;10.014;2023-04-21T03:30:33;6.10;99.90
46508;DHT22;32223;53.654;10.014;2023-04-21T03:32:58;6.10;99.90
46508;DHT22;32223;53.654;10.014;2023-04-21T03:35:24;6.00;99.90
46508;DHT22;32223;53.654;10.014;2023-04-21T03:37:50;6.00;99.90
46508;DHT22;32223;53.654;10.014;2023-04-21T03:40:15;6.00;99.90
46508;DHT22;32223;53.654;10.014;2023-04-21T03:42:41;6.00;99.90
46508;DHT22;32223;53.654;10.014;2023-04-21T03:45:08;6.00;99.90
46508;DHT22;32223;53.654;10.014;2023-04-21T03:47:35;6.00;99.90
46508;DHT22;32223;53.654;10.014;2023-04-21T03:50:04;6.00;99.90
46508;DHT22;32223;53.654;10.014;2023-04-21T03:52:30;6.00;99.90
46508;DHT22;32223;53.654;10.014;2023-04-21T03:54:55;6.00;99.90
46508;DHT22;32223;53.654;10.014;2023-04-21T03:57:21;6.00;99.90
46508;DHT22;32223;53.654;10.014;2023-04-21T03:59:47;5.90;99.90
46508;DHT22;32223;53.654;10.014;2023-04-21T04:02:12;5.90;99.90
46508;DHT22;32223;53.654;10.014;2023-04-21T04:04:38;5.90;99.90
46508;DHT22;32223;53.654;10.014;2023-04-21T04:07:03;6.00;99.90
46508;DHT22;32223;53.654;10.014;2023-04-21T04:09:31;5.90;99.90
46508;DHT22;32223;53.654;10.014;2023-04-21T04:11:57;5.90;99.90
46508;DHT22;32223;53.654;10.014;2023-04-21T04:14:23;5.80;99.90
46508;DHT22;32223;53.654;10.014;2023-04-21T04:16:48;5.90;99.90
46508;DHT22;32223;53.654;10.014;2023-04-21T04:19:14;5.90;99.90
46508;DHT22;32223;53.654;10.014;2023-04-21T04:21:40;5.90;99.90
46508;DHT22;32223;53.654;10.014;2023-04-21T04:24:06;5.90;99.90
46508;DHT22;32223;53.654;10.014;2023-04-21T04:26:32;6.00;99.90
46508;DHT22;32223;53.654;10.014;2023-04-21T04:29:02;6.00;99.90
46508;DHT22;32223;53.654;10.014;2023-04-21T04:31:30;6.00;99.90
46508;DHT22;32223;53.654;10.014;2023-04-21T04:33:56;6.00;99.90
46508;DHT22;32223;53.654;10.014;2023-04-21T04:36:23;6.00;99.90
46508;DHT22;32223;53.654;10.014;2023-04-21T04:38:49;5.90;99.90
46508;DHT22;32223;53.654;10.014;2023-04-21T04:41:14;6.00;99.90
46508;DHT22;32223;53.654;10.014;2023-04-21T04:43:41;6.00;99.90
46508;DHT22;32223;53.654;10.014;2023-04-21T04:46:07;6.00;99.90
46508;DHT22;32223;53.654;10.014;2023-04-21T04:48:37;6.10;99.90
46508;DHT22;32223;53.654;10.014;2023-04-21T04:51:03;6.10;99.90
46508;DHT22;32223;53.654;10.014;2023-04-21T04:53:29;6.10;99.90
46508;DHT22;32223;53.654;10.014;2023-04-21T04:55:54;6.20;99.90
46508;DHT22;32223;53.654;10.014;2023-04-21T04:58:21;6.20;99.90
46508;DHT22;32223;53.654;10.014;2023-04-21T05:00:47;6.20;99.90
46508;DHT22;32223;53.654;10.014;2023-04-21T05:03:13;6.20;99.90
46508;DHT22;32223;53.654;10.014;2023-04-21T05:05:38;6.20;99.90
46508;DHT22;32223;53.654;10.014;2023-04-21T05:08:04;6.30;99.90
46508;DHT22;32223;53.654;10.014;2023-04-21T05:10:30;6.30;99.90
46508;DHT22;32223;53.654;10.014;2023-04-21T05:12:56;6.30;99.90
46508;DHT22;32223;53.654;10.014;2023-04-21T05:15:21;6.40;99.90
46508;DHT22;32223;53.654;10.014;2023-04-21T05:17:47;6.40;99.90
46508;DHT22;32223;53.654;10.014;2023-04-21T05:20:13;6.50;99.90
46508;DHT22;32223;53.654;10.014;2023-04-21T05:22:39;6.50;99.90
46508;DHT22;32223;53.654;10.014;2023-04-21T05:25:06;6.60;99.90
46508;DHT22;32223;53.654;10.014;2023-04-21T05:27:32;6.70;99.90
46508;DHT22;32223;53.654;10.014;2023-04-21T05:30:01;6.70;99.90
46508;DHT22;32223;53.654;10.014;2023-04-21T05:32:26;6.80;99.90
46508;DHT22;32223;53.654;10.014;2023-04-21T05:34:53;6.80;99.90
46508;DHT22;32223;53.654;10.014;2023-04-21T05:37:19;7.00;99.90
46508;DHT22;32223;53.654;10.014;2023-04-21T05:39:44;7.00;99.90
46508;DHT22;32223;53.654;10.014;2023-04-21T05:42:10;7.10;99.90
46508;DHT22;32223;53.654;10.014;2023-04-21T05:44:36;7.20;99.90
46508;DHT22;32223;53.654;10.014;2023-04-21T05:47:04;7.20;99.90
46508;DHT22;32223;53.654;10.014;2023-04-21T05:49:30;7.30;99.90
46508;DHT22;32223;53.654;10.014;2023-04-21T05:51:55;7.40;99.90
46508;DHT22;32223;53.654;10.014;2023-04-21T05:54:21;7.50;99.90
46508;DHT22;32223;53.654;10.014;2023-04-21T05:56:47;7.60;99.90
46508;DHT22;32223;53.654;10.014;2023-04-21T05:59:13;7.70;99.90
46508;DHT22;32223;53.654;10.014;2023-04-21T06:01:38;7.80;99.90
46508;DHT22;32223;53.654;10.014;2023-04-21T06:04:04;7.90;99.90
46508;DHT22;32223;53.654;10.014;2023-04-21T06:06:29;8.00;99.90
46508;DHT22;32223;53.654;10.014;2023-04-21T06:08:56;8.10;99.90
46508;DHT22;32223;53.654;10.014;2023-04-21T06:11:21;8.20;99.90
46508;DHT22;32223;53.654;10.014;2023-04-21T06:13:48;8.30;99.90
46508;DHT22;32223;53.654;10.014;2023-04-21T06:16:14;8.40;99.90
46508;DHT22;32223;53.654;10.014;2023-04-21T06:18:39;8.50;99.90
46508;DHT22;32223;53.654;10.014;2023-04-21T06:21:05;8.60;99.90
46508;DHT22;32223;53.654;10.014;2023-04-21T06:23:31;8.60;99.90
46508;DHT22;32223;53.654;10.014;2023-04-21T06:26:04;8.70;99.90
46508;DHT22;32223;53.654;10.014;2023-04-21T06:28:32;8.80;99.90
46508;DHT22;32223;53.654;10.014;2023-04-21T06:30:58;8.90;99.90
46508;DHT22;32223;53.654;10.014;2023-04-21T06:33:24;8.90;99.90
46508;DHT22;32223;53.654;10.014;2023-04-21T06:35:51;9.00;99.90
46508;DHT22;32223;53.654;10.014;2023-04-21T06:38:17;9.10;99.90
46508;DHT22;32223;53.654;10.014;2023-04-21T06:40:42;9.20;99.90
46508;DHT22;32223;53.654;10.014;2023-04-21T06:43:08;9.30;99.90
46508;DHT22;32223;53.654;10.014;2023-04-21T06:45:34;9.40;99.90
46508;DHT22;32223;53.654;10.014;2023-04-21T06:47:59;9.50;99.90
46508;DHT22;32223;53.654;10.014;2023-04-21T06:50:25;9.60;99.90
46508;DHT22;32223;53.654;10.014;2023-04-21T06:52:51;9.80;99.90
46508;DHT22;32223;53.654;10.014;2023-04-21T06:55:16;9.80;99.90
46508;DHT22;32223;53.654;10.014;2023-04-21T06:57:42;9.90;99.90
46508;DHT22;32223;53.654;10.014;2023-04-21T07:00:08;10.00;99.90
46508;DHT22;32223;53.654;10.014;2023-04-21T07:02:34;10.10;99.90
46508;DHT22;32223;53.654;10.014;2023-04-21T07:05:00;10.20;99.90
46508;DHT22;32223;53.654;10.014;2023-04-21T07:07:26;10.30;99.90
46508;DHT22;32223;53.654;10.014;2023-04-21T07:09:51;10.40;99.90
46508;DHT22;32223;53.654;10.014;2023-04-21T07:12:17;10.50;99.90
46508;DHT22;32223;53.654;10.014;2023-04-21T07:14:42;10.60;99.90
46508;DHT22;32223;53.654;10.014;2023-04-21T07:17:08;10.70;99.90
46508;DHT22;32223;53.654;10.014;2023-04-21T07:19:34;10.80;99.90
46508;DHT22;32223;53.654;10.014;2023-04-21T07:21:59;10.80;99.90
46508;DHT22;32223;53.654;10.014;2023-04-21T07:24:25;10.90;99.90
46508;DHT22;32223;53.654;10.014;2023-04-21T07:26:50;11.00;99.90
46508;DHT22;32223;53.654;10.014;2023-04-21T07:29:16;11.00;99.90
46508;DHT22;32223;53.654;10.014;2023-04-21T07:31:42;11.10;99.90
46508;DHT22;32223;53.654;10.014;2023-04-21T07:34:07;11.20;99.90
46508;DHT22;32223;53.654;10.014;2023-04-21T07:36:33;11.20;99.90
46508;DHT22;32223;53.654;10.014;2023-04-21T07:38:58;11.30;99.90
46508;DHT22;32223;53.654;10.014;2023-04-21T07:41:24;11.30;99.90
46508;DHT22;32223;53.654;10.014;2023-04-21T07:43:50;11.40;99.90
46508;DHT22;32223;53.654;10.014;2023-04-21T07:46:15;11.60;99.90
46508;DHT22;32223;53.654;10.014;2023-04-21T07:48:41;11.70;99.90
46508;DHT22;32223;53.654;10.014;2023-04-21T07:51:06;11.80;99.90
46508;DHT22;32223;53.654;10.014;2023-04-21T07:53:32;12.00;99.90
46508;DHT22;32223;53.654;10.014;2023-04-21T07:55:58;12.10;99.90
46508;DHT22;32223;53.654;10.014;2023-04-21T07:58:23;12.20;99.90
46508;DHT22;32223;53.654;10.014;2023-04-21T08:00:49;12.20;99.90
46508;DHT22;32223;53.654;10.014;2023-04-21T08:03:15;12.40;99.90
46508;DHT22;32223;53.654;10.014;2023-04-21T08:05:41;12.50;99.90
46508;DHT22;32223;53.654;10.014;2023-04-21T08:08:07;12.60;99.90
46508;DHT22;32223;53.654;10.014;2023-04-21T08:10:32;12.70;99.90
46508;DHT22;32223;53.654;10.014;2023-04-21T08:12:58;12.80;99.90
46508;DHT22;32223;53.654;10.014;2023-04-21T08:15:24;12.80;99.90
46508;DHT22;32223;53.654;10.014;2023-04-21T08:17:50;12.90;99.90
46508;DHT22;32223;53.654;10.014;2023-04-21T08:20:16;13.00;99.90
46508;DHT22;32223;53.654;10.014;2023-04-21T08:22:41;13.10;99.90
46508;DHT22;32223;53.654;10.014;2023-04-21T08:25:07;13.20;99.90
46508;DHT22;32223;53.654;10.014;2023-04-21T08:27:33;13.20;99.90
46508;DHT22;32223;53.654;10.014;2023-04-21T08:29:58;13.40;99.90
46508;DHT22;32223;53.654;10.014;2023-04-21T08:32:25;13.50;99.90
46508;DHT22;32223;53.654;10.014;2023-04-21T08:34:52;13.40;99.90
46508;DHT22;32223;53.654;10.014;2023-04-21T08:37:19;13.50;99.90
46508;DHT22;32223;53.654;10.014;2023-04-21T08:39:45;13.60;99.90
46508;DHT22;32223;53.654;10.014;2023-04-21T08:42:18;13.80;99.90
46508;DHT22;32223;53.654;10.014;2023-04-21T08:44:44;13.80;99.90
46508;DHT22;32223;53.654;10.014;2023-04-21T08:47:11;14.00;99.90
46508;DHT22;32223;53.654;10.014;2023-04-21T08:49:38;14.10;99.90
46508;DHT22;32223;53.654;10.014;2023-04-21T08:52:04;14.20;99.90
46508;DHT22;32223;53.654;10.014;2023-04-21T08:54:30;14.30;99.90
46508;DHT22;32223;53.654;10.014;2023-04-21T08:56:56;14.30;99.90
46508;DHT22;32223;53.654;10.014;2023-04-21T08:59:22;14.40;99.90
46508;DHT22;32223;53.654;10.014;2023-04-21T09:02:15;14.50;99.90
46508;DHT22;32223;53.654;10.014;2023-04-21T09:04:46;14.70;99.90
46508;DHT22;32223;53.654;10.014;2023-04-21T09:07:32;14.90;99.90
46508;DHT22;32223;53.654;10.014;2023-04-21T09:09:58;15.00;99.90
46508;DHT22;32223;53.654;10.014;2023-04-21T09:12:25;15.00;99.90
46508;DHT22;32223;53.654;10.014;2023-04-21T09:14:52;15.10;99.90
46508;DHT22;32223;53.654;10.014;2023-04-21T09:17:21;15.20;99.90
46508;DHT22;32223;53.654;10.014;2023-04-21T09:19:47;15.20;99.90
46508;DHT22;32223;53.654;10.014;2023-04-21T09:22:16;15.20;99.90
46508;DHT22;32223;53.654;10.014;2023-04-21T09:24:48;15.30;99.90
46508;DHT22;32223;53.654;10.014;2023-04-21T09:27:21;15.30;99.90
46508;DHT22;32223;53.654;10.014;2023-04-21T09:29:46;15.30;99.90
46508;DHT22;32223;53.654;10.014;2023-04-21T09:32:16;15.30;99.90
46508;DHT22;32223;53.654;10.014;2023-04-21T09:34:43;15.40;99.90
46508;DHT22;32223;53.654;10.014;2023-04-21T09:37:10;15.60;99.90
46508;DHT22;32223;53.654;10.014;2023-04-21T09:39:36;15.80;99.90
46508;DHT22;32223;53.654;10.014;2023-04-21T09:42:01;15.80;99.90
46508;DHT22;32223;53.654;10.014;2023-04-21T09:44:28;16.00;99.90
46508;DHT22;32223;53.654;10.014;2023-04-21T09:47:00;16.10;99.90
46508;DHT22;32223;53.654;10.014;2023-04-21T09:49:34;16.30;99.90
46508;DHT22;32223;53.654;10.014;2023-04-21T09:52:01;16.20;99.90
46508;DHT22;32223;53.654;10.014;2023-04-21T09:54:31;16.40;99.90
46508;DHT22;32223;53.654;10.014;2023-04-21T09:57:02;16.60;99.90
46508;DHT22;32223;53.654;10.014;2023-04-21T09:59:39;16.60;99.90
46508;DHT22;32223;53.654;10.014;2023-04-21T10:02:07;16.60;99.90
46508;DHT22;32223;53.654;10.014;2023-04-21T10:04:35;16.70;99.90
46508;DHT22;32223;53.654;10.014;2023-04-21T10:07:01;16.90;99.90
46508;DHT22;32223;53.654;10.014;2023-04-21T10:09:34;16.80;99.90
46508;DHT22;32223;53.654;10.014;2023-04-21T10:12:02;16.90;99.90
46508;DHT22;32223;53.654;10.014;2023-04-21T10:14:28;17.00;99.90
46508;DHT22;32223;53.654;10.014;2023-04-21T10:17:08;17.10;99.90
46508;DHT22;32223;53.654;10.014;2023-04-21T10:19:35;17.10;99.90
46508;DHT22;32223;53.654;10.014;2023-04-21T10:22:07;17.20;99.90
46508;DHT22;32223;53.654;10.014;2023-04-21T10:24:38;17.30;99.90
46508;DHT22;32223;53.654;10.014;2023-04-21T10:27:04;17.40;99.90
46508;DHT22;32223;53.654;10.014;2023-04-21T10:29:32;17.50;99.90
46508;DHT22;32223;53.654;10.014;2023-04-21T10:31:58;17.60;99.90
46508;DHT22;32223;53.654;10.014;2023-04-21T10:34:34;17.70;99.90
46508;DHT22;32223;53.654;10.014;2023-04-21T10:39:41;17.70;99.90
46508;DHT22;32223;53.654;10.014;2023-04-21T10:47:42;17.90;99.90
46508;DHT22;32223;53.654;10.014;2023-04-21T10:50:18;18.00;99.90
46508;DHT22;32223;53.654;10.014;2023-04-21T10:52:55;18.30;99.90
46508;DHT22;32223;53.654;10.014;2023-04-21T10:55:25;18.60;99.90
46508;DHT22;32223;53.654;10.014;2023-04-21T10:57:51;18.70;99.90
46508;DHT22;32223;53.654;10.014;2023-04-21T11:00:20;18.60;99.90
46508;DHT22;32223;53.654;10.014;2023-04-21T11:03:01;18.50;99.90
46508;DHT22;32223;53.654;10.014;2023-04-21T11:05:33;18.50;99.90
46508;DHT22;32223;53.654;10.014;2023-04-21T11:08:18;18.50;99.90
46508;DHT22;32223;53.654;10.014;2023-04-21T11:10:54;18.60;99.90
46508;DHT22;32223;53.654;10.014;2023-04-21T11:13:21;18.70;99.90
46508;DHT22;32223;53.654;10.014;2023-04-21T11:15:58;18.70;99.90
46508;DHT22;32223;53.654;10.014;2023-04-21T11:18:38;18.80;99.90
46508;DHT22;32223;53.654;10.014;2023-04-21T11:21:14;18.90;99.90
46508;DHT22;32223;53.654;10.014;2023-04-21T11:23:53;18.90;99.90
46508;DHT22;32223;53.654;10.014;2023-04-21T11:26:29;19.10;99.90
46508;DHT22;32223;53.654;10.014;2023-04-21T11:28:58;19.20;99.90
46508;DHT22;32223;53.654;10.014;2023-04-21T11:31:27;19.20;99.90
46508;DHT22;32223;53.654;10.014;2023-04-21T11:33:54;19.30;99.90
46508;DHT22;32223;53.654;10.014;2023-04-21T11:36:21;19.30;99.90
46508;DHT22;32223;53.654;10.014;2023-04-21T11:38:47;19.40;99.90
46508;DHT22;32223;53.654;10.014;2023-04-21T11:41:19;19.40;99.90
46508;DHT22;32223;53.654;10.014;2023-04-21T11:43:46;19.50;99.90
46508;DHT22;32223;53.654;10.014;2023-04-21T11:46:21;19.70;99.90
46508;DHT22;32223;53.654;10.014;2023-04-21T11:49:03;19.80;99.90
46508;DHT22;32223;53.654;10.014;2023-04-21T11:54:06;19.50;99.90
46508;DHT22;32223;53.654;10.014;2023-04-21T11:56:36;19.50;99.90
46508;DHT22;32223;53.654;10.014;2023-04-21T11:59:13;19.50;99.90
46508;DHT22;32223;53.654;10.014;2023-04-21T12:01:47;19.70;99.90
46508;DHT22;32223;53.654;10.014;2023-04-21T12:04:24;19.90;99.90
46508;DHT22;32223;53.654;10.014;2023-04-21T12:07:01;20.00;99.90
46508;DHT22;32223;53.654;10.014;2023-04-21T12:09:27;20.30;99.90
46508;DHT22;32223;53.654;10.014;2023-04-21T12:11:55;20.40;99.90
46508;DHT22;32223;53.654;10.014;2023-04-21T12:14:23;20.60;99.90
46508;DHT22;32223;53.654;10.014;2023-04-21T12:16:51;20.70;99.90
46508;DHT22;32223;53.654;10.014;2023-04-21T12:19:33;20.90;99.90
46508;DHT22;32223;53.654;10.014;2023-04-21T12:21:59;20.90;99.90
46508;DHT22;32223;53.654;10.014;2023-04-21T12:24:25;21.00;99.90
46508;DHT22;32223;53.654;10.014;2023-04-21T12:26:51;21.00;99.90
46508;DHT22;32223;53.654;10.014;2023-04-21T12:29:17;21.20;99.90
46508;DHT22;32223;53.654;10.014;2023-04-21T12:31:42;21.30;99.90
46508;DHT22;32223;53.654;10.014;2023-04-21T12:34:08;21.50;99.90
46508;DHT22;32223;53.654;10.014;2023-04-21T12:36:34;21.70;99.90
46508;DHT22;32223;53.654;10.014;2023-04-21T12:38:59;21.50;99.90
46508;DHT22;32223;53.654;10.014;2023-04-21T12:41:25;21.50;99.90
46508;DHT22;32223;53.654;10.014;2023-04-21T12:43:51;21.80;99.90
46508;DHT22;32223;53.654;10.014;2023-04-21T12:46:16;22.10;99.90
46508;DHT22;32223;53.654;10.014;2023-04-21T12:48:42;22.10;99.90
46508;DHT22;32223;53.654;10.014;2023-04-21T12:51:08;22.20;99.60
46508;DHT22;32223;53.654;10.014;2023-04-21T12:53:34;22.00;99.90
46508;DHT22;32223;53.654;10.014;2023-04-21T12:56:01;21.80;99.90
46508;DHT22;32223;53.654;10.014;2023-04-21T12:58:26;21.90;99.80
46508;DHT22;32223;53.654;10.014;2023-04-21T13:00:52;21.60;99.90
46508;DHT22;32223;53.654;10.014;2023-04-21T13:03:18;22.00;99.90
46508;DHT22;32223;53.654;10.014;2023-04-21T13:05:43;22.50;99.90
46508;DHT22;32223;53.654;10.014;2023-04-21T13:08:09;23.00;99.90
46508;DHT22;32223;53.654;10.014;2023-04-21T13:10:35;23.60;99.20
46508;DHT22;32223;53.654;10.014;2023-04-21T13:13:00;23.70;97.90
46508;DHT22;32223;53.654;10.014;2023-04-21T13:15:26;23.20;97.80
46508;DHT22;32223;53.654;10.014;2023-04-21T13:17:52;23.10;98.20
46508;DHT22;32223;53.654;10.014;2023-04-21T13:20:17;23.10;98.10
46508;DHT22;32223;53.654;10.014;2023-04-21T13:22:43;23.40;97.90
46508;DHT22;32223;53.654;10.014;2023-04-21T13:25:09;23.30;97.90
46508;DHT22;32223;53.654;10.014;2023-04-21T13:27:35;23.80;97.30
46508;DHT22;32223;53.654;10.014;2023-04-21T13:30:05;23.80;96.70
46508;DHT22;32223;53.654;10.014;2023-04-21T13:32:32;23.60;97.10
46508;DHT22;32223;53.654;10.014;2023-04-21T13:34:57;23.60;97.20
46508;DHT22;32223;53.654;10.014;2023-04-21T13:37:23;23.80;95.50
46508;DHT22;32223;53.654;10.014;2023-04-21T13:39:49;23.50;95.40
46508;DHT22;32223;53.654;10.014;2023-04-21T13:42:14;23.70;96.30
46508;DHT22;32223;53.654;10.014;2023-04-21T13:44:40;24.00;95.30
46508;DHT22;32223;53.654;10.014;2023-04-21T13:47:05;23.90;94.30
46508;DHT22;32223;53.654;10.014;2023-04-21T13:49:31;24.20;93.70
46508;DHT22;32223;53.654;10.014;2023-04-21T13:51:57;24.20;93.80
46508;DHT22;32223;53.654;10.014;2023-04-21T13:54:22;24.30;93.50
46508;DHT22;32223;53.654;10.014;2023-04-21T13:56:48;24.30;91.90
46508;DHT22;32223;53.654;10.014;2023-04-21T13:59:14;24.00;91.80
46508;DHT22;32223;53.654;10.014;2023-04-21T14:01:41;23.60;91.00
46508;DHT22;32223;53.654;10.014;2023-04-21T14:04:06;23.80;91.40
46508;DHT22;32223;53.654;10.014;2023-04-21T14:06:32;24.30;91.10
46508;DHT22;32223;53.654;10.014;2023-04-21T14:08:58;24.20;90.20
46508;DHT22;32223;53.654;10.014;2023-04-21T14:11:23;23.20;90.60
46508;DHT22;32223;53.654;10.014;2023-04-21T14:13:49;22.00;91.40
46508;DHT22;32223;53.654;10.014;2023-04-21T14:16:15;22.30;92.30
46508;DHT22;32223;53.654;10.014;2023-04-21T14:18:41;23.20;91.70
46508;DHT22;32223;53.654;10.014;2023-04-21T14:21:10;24.20;90.10
46508;DHT22;32223;53.654;10.014;2023-04-21T14:23:36;24.70;85.70
46508;DHT22;32223;53.654;10.014;2023-04-21T14:26:02;24.40;85.60
46508;DHT22;32223;53.654;10.014;2023-04-21T14:28:28;24.40;84.30
46508;DHT22;32223;53.654;10.014;2023-04-21T14:30:53;24.80;84.40
46508;DHT22;32223;53.654;10.014;2023-04-21T14:33:19;25.30;83.40
46508;DHT22;32223;53.654;10.014;2023-04-21T14:35:44;25.80;81.20
46508;DHT22;32223;53.654;10.014;2023-04-21T14:38:10;25.20;79.30
46508;DHT22;32223;53.654;10.014;2023-04-21T14:40:36;24.80;81.00
46508;DHT22;32223;53.654;10.014;2023-04-21T14:43:01;23.90;81.80
46508;DHT22;32223;53.654;10.014;2023-04-21T14:45:27;23.20;83.20
46508;DHT22;32223;53.654;10.014;2023-04-21T14:47:52;22.70;85.10
46508;DHT22;32223;53.654;10.014;2023-04-21T14:50:18;23.10;85.30
46508;DHT22;32223;53.654;10.014;2023-04-21T14:52:44;23.10;85.70
46508;DHT22;32223;53.654;10.014;2023-04-21T14:55:14;23.30;84.60
46508;DHT22;32223;53.654;10.014;2023-04-21T14:57:39;23.30;85.60
46508;DHT22;32223;53.654;10.014;2023-04-21T15:00:05;23.20;84.60
46508;DHT22;32223;53.654;10.014;2023-04-21T15:02:32;23.20;85.00
46508;DHT22;32223;53.654;10.014;2023-04-21T15:04:57;23.30;85.60
46508;DHT22;32223;53.654;10.014;2023-04-21T15:07:23;23.40;84.90
46508;DHT22;32223;53.654;10.014;2023-04-21T15:09:49;23.70;85.10
46508;DHT22;32223;53.654;10.014;2023-04-21T15:12:15;23.90;83.90
46508;DHT22;32223;53.654;10.014;2023-04-21T15:14:40;23.90;83.70
46508;DHT22;32223;53.654;10.014;2023-04-21T15:17:06;24.20;83.50
46508;DHT22;32223;53.654;10.014;2023-04-21T15:19:33;23.60;82.90
46508;DHT22;32223;53.654;10.014;2023-04-21T15:21:58;23.20;84.30
46508;DHT22;32223;53.654;10.014;2023-04-21T15:24:24;22.70;85.80
46508;DHT22;32223;53.654;10.014;2023-04-21T15:26:50;22.90;85.30
46508;DHT22;32223;53.654;10.014;2023-04-21T15:29:15;23.10;85.00
46508;DHT22;32223;53.654;10.014;2023-04-21T15:31:41;23.20;85.00